ePrivacy and GPDR Cookie Consent by Cookie Consent
EmailTwitter


Observations de surface / France / LFBD (07510)

Régions: Québec | Canada | États-Unis | Europe | France | UK | Ailleurs
Station
Affichage
Infos & localisation pour LFBD (07510) | Aide pour décoder les METARs

Observations prises le 2023-02-09 à 05H00 UTC à BORDEAUX/MERIGNA, FR (LFBD)

Température: -3.0 Celsius

Point de rosée: -4.0 Celsius

Humidité relative: 93%

Vents: Calme à 0 km/h ou 0 noeuds.

Pression au niveau moyen de la mer: 103.10 kilopascals.

Visibilité horizontale: 4.97 milles terrestres ou 7.95 kilomètres.

Observation METAR:

LFBD 090500Z AUTO 00000KT 8000 NSC M03/M04 Q1031 NOSIG=